createdAt,value
2023-02-02T00:00:05.270Z,1.10
2023-02-02T00:03:08.956Z,1.07
2023-02-02T00:06:11.760Z,1.02
2023-02-02T00:09:16.017Z,1.20
2023-02-02T00:12:18.603Z,1.00
2023-02-02T00:15:21.050Z,1.07
2023-02-02T00:18:23.782Z,1.57
2023-02-02T00:21:26.633Z,0.93
2023-02-02T00:24:29.477Z,0.85
2023-02-02T00:27:31.931Z,1.38
2023-02-02T00:30:34.495Z,1.10
2023-02-02T00:33:37.084Z,1.00
2023-02-02T00:36:40.061Z,0.90
2023-02-02T00:39:43.179Z,1.00
2023-02-02T00:42:50.368Z,1.27
2023-02-02T00:45:52.881Z,1.43
2023-02-02T00:48:55.471Z,0.95
2023-02-02T00:51:57.938Z,1.00
2023-02-02T00:55:00.928Z,1.03
2023-02-02T00:58:05.058Z,1.23
2023-02-02T01:01:16.979Z,0.80
2023-02-02T01:04:19.682Z,0.77
2023-02-02T01:07:22.085Z,0.90
2023-02-02T01:10:25.583Z,0.90
2023-02-02T01:13:28.024Z,0.93
2023-02-02T01:16:31.555Z,1.00
2023-02-02T01:19:34.029Z,0.80
2023-02-02T01:22:38.543Z,1.10
2023-02-02T01:25:40.975Z,0.80
2023-02-02T01:28:43.831Z,0.70
2023-02-02T01:31:46.775Z,0.70
2023-02-02T01:34:49.239Z,0.52
2023-02-02T01:37:51.776Z,0.70
2023-02-02T01:40:56.523Z,0.82
2023-02-02T01:44:04.720Z,0.70
2023-02-02T01:47:07.175Z,0.65
2023-02-02T01:50:12.267Z,0.67
2023-02-02T01:53:15.022Z,0.32
2023-02-02T01:56:32.078Z,0.70
2023-02-02T01:59:35.839Z,0.40
2023-02-02T02:02:39.799Z,0.73
2023-02-02T02:06:01.323Z,0.40
2023-02-02T02:09:05.512Z,0.30
2023-02-02T02:12:16.244Z,0.40
2023-02-02T02:15:39.291Z,0.50
2023-02-02T02:19:17.346Z,0.20
2023-02-02T02:22:40.221Z,0.22
2023-02-02T02:26:29.787Z,0.20
2023-02-02T02:29:52.004Z,0.20
2023-02-02T02:33:24.443Z,0.50
2023-02-02T02:36:38.745Z,0.30
2023-02-02T02:39:58.375Z,0.40
2023-02-02T02:43:09.912Z,0.20
2023-02-02T02:46:13.816Z,0.30
2023-02-02T02:49:17.181Z,0.30
2023-02-02T02:52:19.979Z,0.60
2023-02-02T02:55:25.643Z,0.40
2023-02-02T02:58:40.884Z,0.40
2023-02-02T03:02:00.887Z,0.50
2023-02-02T03:05:13.241Z,0.32
2023-02-02T03:08:34.015Z,0.40
2023-02-02T03:11:37.281Z,0.30
2023-02-02T03:14:39.800Z,0.40
2023-02-02T03:17:43.634Z,0.52
2023-02-02T03:20:46.284Z,0.30
2023-02-02T03:23:48.967Z,0.60
2023-02-02T03:26:51.829Z,0.30
2023-02-02T03:29:54.987Z,0.50
2023-02-02T03:32:57.585Z,0.47
2023-02-02T03:36:00.044Z,0.60
2023-02-02T03:39:02.488Z,0.43
2023-02-02T03:42:05.502Z,0.70
2023-02-02T03:45:08.466Z,0.82
2023-02-02T03:48:10.916Z,0.70
2023-02-02T03:51:14.903Z,0.60
2023-02-02T03:54:17.364Z,0.82
2023-02-02T03:57:19.945Z,0.50
2023-02-02T04:00:22.667Z,0.60
2023-02-02T04:03:25.215Z,0.70
2023-02-02T04:06:27.878Z,0.80
2023-02-02T04:09:30.288Z,0.75
2023-02-02T04:12:32.736Z,0.50
2023-02-02T04:15:35.114Z,0.40
2023-02-02T04:18:40.142Z,0.40
2023-02-02T04:21:42.830Z,0.50
2023-02-02T04:24:45.334Z,0.40
2023-02-02T04:27:47.740Z,0.80
2023-02-02T04:30:50.879Z,0.57
2023-02-02T04:33:53.293Z,0.60
2023-02-02T04:36:56.236Z,0.40
2023-02-02T04:39:58.955Z,0.50
2023-02-02T04:43:01.700Z,0.60
2023-02-02T04:46:05.061Z,0.40
2023-02-02T04:49:10.459Z,0.50
2023-02-02T04:52:12.896Z,0.70
2023-02-02T04:55:15.544Z,0.93
2023-02-02T04:58:18.892Z,0.70
2023-02-02T05:01:22.025Z,0.83
2023-02-02T05:04:24.432Z,0.90
2023-02-02T05:07:26.964Z,0.60
2023-02-02T05:10:29.482Z,0.93
2023-02-02T05:13:32.376Z,0.43
2023-02-02T05:16:35.036Z,0.50
2023-02-02T05:19:37.522Z,0.75
2023-02-02T05:22:40.169Z,0.50
2023-02-02T05:25:42.663Z,0.70
2023-02-02T05:28:45.085Z,0.40
2023-02-02T05:31:47.563Z,0.55
2023-02-02T05:34:50.055Z,0.50
2023-02-02T05:37:52.514Z,0.40
2023-02-02T05:40:54.914Z,0.60
2023-02-02T05:44:00.956Z,0.95
2023-02-02T05:47:03.380Z,0.50
2023-02-02T05:50:06.430Z,0.70
2023-02-02T05:53:10.663Z,0.65
2023-02-02T05:56:13.837Z,0.55
2023-02-02T05:59:17.620Z,0.60
2023-02-02T06:02:20.329Z,0.50
2023-02-02T06:05:23.297Z,0.95
2023-02-02T06:08:26.042Z,0.50
2023-02-02T06:11:28.659Z,0.75
2023-02-02T06:14:31.865Z,0.40
2023-02-02T06:17:34.358Z,0.55
2023-02-02T06:20:37.241Z,0.60
2023-02-02T06:23:45.670Z,0.50
2023-02-02T06:26:48.154Z,0.90
2023-02-02T06:29:50.708Z,0.60
2023-02-02T06:32:53.462Z,0.88
2023-02-02T06:36:00.131Z,1.50
2023-02-02T06:39:04.850Z,1.17
2023-02-02T06:42:20.306Z,0.80
2023-02-02T06:45:23.644Z,1.00
2023-02-02T06:48:29.162Z,0.57
2023-02-02T06:51:32.489Z,0.93
2023-02-02T06:54:35.021Z,1.35
2023-02-02T06:57:37.534Z,0.80
2023-02-02T07:00:39.955Z,0.60
2023-02-02T07:03:42.883Z,0.70
2023-02-02T07:06:45.940Z,0.65
2023-02-02T07:09:48.381Z,0.90
2023-02-02T07:13:01.058Z,0.68
2023-02-02T07:16:05.545Z,0.73
2023-02-02T07:19:08.313Z,0.93
2023-02-02T07:22:10.901Z,0.88
2023-02-02T07:25:13.321Z,0.52
2023-02-02T07:28:15.739Z,0.80
2023-02-02T07:31:26.557Z,0.43
2023-02-02T07:34:29.172Z,0.70
2023-02-02T07:37:31.901Z,0.85
2023-02-02T07:40:34.485Z,0.70
2023-02-02T07:43:37.153Z,0.60
2023-02-02T07:46:40.015Z,0.60
2023-02-02T07:49:43.700Z,0.73
2023-02-02T07:52:46.375Z,1.03
2023-02-02T07:55:48.880Z,0.60
2023-02-02T07:58:53.324Z,0.52
2023-02-02T08:01:56.082Z,0.63
2023-02-02T08:04:58.599Z,0.50
2023-02-02T08:08:01.085Z,0.47
2023-02-02T08:11:03.624Z,0.30
2023-02-02T08:14:06.598Z,0.73
2023-02-02T08:17:09.331Z,0.70
2023-02-02T08:20:13.596Z,0.53
2023-02-02T08:23:16.840Z,0.50
2023-02-02T08:26:22.819Z,0.60
2023-02-02T08:29:25.595Z,0.40
2023-02-02T08:32:28.258Z,0.40
2023-02-02T08:35:30.745Z,0.47
2023-02-02T08:38:33.917Z,0.40
2023-02-02T08:41:37.666Z,0.40
2023-02-02T08:44:45.605Z,0.65
2023-02-02T08:48:11.609Z,0.60
2023-02-02T08:51:17.049Z,0.70
2023-02-02T08:54:20.584Z,0.60
2023-02-02T08:57:23.320Z,0.40
2023-02-02T09:00:26.142Z,0.63
2023-02-02T09:03:28.728Z,0.67
2023-02-02T09:06:36.644Z,0.50
2023-02-02T09:09:41.542Z,0.45
2023-02-02T09:12:45.733Z,0.75
2023-02-02T09:15:48.790Z,0.70
2023-02-02T09:18:51.902Z,0.60
2023-02-02T09:21:54.388Z,0.60
2023-02-02T09:24:56.978Z,0.50
2023-02-02T09:27:59.434Z,0.63
2023-02-02T09:31:02.557Z,0.43
2023-02-02T09:34:09.875Z,0.40
2023-02-02T09:37:12.374Z,0.60
2023-02-02T09:40:19.559Z,0.70
2023-02-02T09:43:53.167Z,0.65
2023-02-02T09:47:01.559Z,0.60
2023-02-02T09:50:08.963Z,0.67
2023-02-02T09:53:23.952Z,0.50
2023-02-02T09:56:26.363Z,0.60
2023-02-02T09:59:40.479Z,0.40
2023-02-02T10:02:46.569Z,0.50
2023-02-02T10:05:55.976Z,0.80
2023-02-02T10:09:23.528Z,0.70
2023-02-02T10:12:47.207Z,0.57
2023-02-02T10:16:03.641Z,0.60
2023-02-02T10:19:11.608Z,0.60
2023-02-02T10:22:26.256Z,0.63
2023-02-02T10:25:29.672Z,0.90
2023-02-02T10:29:14.117Z,0.63
2023-02-02T10:32:29.024Z,0.70
2023-02-02T10:35:41.174Z,0.70
2023-02-02T10:39:00.775Z,0.47
2023-02-02T10:42:26.365Z,0.70
2023-02-02T10:45:28.880Z,0.90
2023-02-02T10:48:35.881Z,0.95
2023-02-02T10:51:40.790Z,0.60
2023-02-02T10:54:55.811Z,0.80
2023-02-02T10:58:32.314Z,0.63
2023-02-02T11:01:34.910Z,0.68
2023-02-02T11:04:56.328Z,0.77
2023-02-02T11:07:59.405Z,0.93
2023-02-02T11:11:11.155Z,0.50
2023-02-02T11:14:18.928Z,1.00
2023-02-02T11:17:24.260Z,0.70
2023-02-02T11:20:35.585Z,0.65
2023-02-02T11:23:38.559Z,0.60
2023-02-02T11:26:55.760Z,0.60
2023-02-02T11:30:01.150Z,0.73
2023-02-02T11:33:28.650Z,1.10
2023-02-02T11:36:31.252Z,1.10
2023-02-02T11:39:33.818Z,0.90
2023-02-02T11:42:36.417Z,1.30
2023-02-02T11:45:42.841Z,0.60
2023-02-02T11:49:09.952Z,0.80
2023-02-02T11:52:23.575Z,0.90
2023-02-02T11:55:30.380Z,0.65
2023-02-02T11:58:50.136Z,0.70
2023-02-02T12:02:20.418Z,0.60
2023-02-02T12:05:23.711Z,0.90
2023-02-02T12:08:26.207Z,0.50
2023-02-02T12:11:37.735Z,0.70
2023-02-02T12:15:12.613Z,0.60
2023-02-02T12:18:38.297Z,0.67
2023-02-02T12:22:11.497Z,0.45
2023-02-02T12:25:37.425Z,0.60
2023-02-02T12:28:40.047Z,0.50
2023-02-02T12:32:18.340Z,0.43
2023-02-02T12:35:21.693Z,0.90
2023-02-02T12:38:30.177Z,0.65
2023-02-02T12:42:00.610Z,0.50
2023-02-02T12:45:06.066Z,0.75
2023-02-02T12:48:26.522Z,1.03
2023-02-02T12:51:38.170Z,0.73
2023-02-02T12:54:53.634Z,0.70
2023-02-02T12:58:07.515Z,0.80
2023-02-02T13:01:23.928Z,0.70
2023-02-02T13:04:32.853Z,0.80
2023-02-02T13:07:55.440Z,0.50
2023-02-02T13:11:06.220Z,0.68
2023-02-02T13:14:22.174Z,0.73
2023-02-02T13:17:36.459Z,0.82
2023-02-02T13:20:46.432Z,0.93
2023-02-02T13:23:56.515Z,0.60
2023-02-02T13:27:02.995Z,0.73
2023-02-02T13:30:22.979Z,0.90
2023-02-02T13:33:32.309Z,0.80
2023-02-02T13:36:37.623Z,0.70
2023-02-02T13:39:46.007Z,1.03
2023-02-02T13:43:15.629Z,0.85
2023-02-02T13:47:03.413Z,0.63
2023-02-02T13:50:14.072Z,0.88
2023-02-02T13:53:39.713Z,0.90
2023-02-02T13:56:51.813Z,0.77
2023-02-02T14:00:05.287Z,0.90
2023-02-02T14:03:43.000Z,1.05
2023-02-02T14:07:07.133Z,0.90
2023-02-02T14:10:24.785Z,0.90
2023-02-02T14:13:50.087Z,0.73
2023-02-02T14:16:53.338Z,0.80
2023-02-02T14:19:58.143Z,0.90
2023-02-02T14:23:00.623Z,0.90
2023-02-02T14:26:09.506Z,1.33
2023-02-02T14:29:29.477Z,1.80
2023-02-02T14:32:41.117Z,0.93
2023-02-02T14:35:43.511Z,1.00
2023-02-02T14:39:01.023Z,0.80
2023-02-02T14:42:28.219Z,0.80
2023-02-02T14:45:36.349Z,0.70
2023-02-02T14:48:44.013Z,0.70
2023-02-02T14:51:53.106Z,0.90
2023-02-02T14:54:55.940Z,0.80
2023-02-02T14:58:04.432Z,1.00
2023-02-02T15:01:25.840Z,0.80
2023-02-02T15:04:29.474Z,0.75
2023-02-02T15:07:32.801Z,1.13
2023-02-02T15:10:53.538Z,0.50
2023-02-02T15:14:07.070Z,1.00
2023-02-02T15:17:17.541Z,1.07
2023-02-02T15:21:01.528Z,0.90
2023-02-02T15:24:06.809Z,0.90
2023-02-02T15:27:17.627Z,0.70
2023-02-02T15:30:20.955Z,0.70
2023-02-02T15:33:29.729Z,0.70
2023-02-02T15:36:35.704Z,0.90
2023-02-02T15:39:49.192Z,0.85
2023-02-02T15:42:58.824Z,1.00
2023-02-02T15:46:05.862Z,1.10
2023-02-02T15:49:33.293Z,1.20
2023-02-02T15:52:47.131Z,1.00
2023-02-02T15:55:50.559Z,1.30
2023-02-02T15:58:56.357Z,1.10
2023-02-02T16:02:22.768Z,1.17
2023-02-02T16:05:37.233Z,1.00
2023-02-02T16:08:41.357Z,0.80
2023-02-02T16:11:50.313Z,1.50
2023-02-02T16:14:55.407Z,1.25
2023-02-02T16:18:15.350Z,1.30
2023-02-02T16:21:24.859Z,1.17
2023-02-02T16:24:31.991Z,2.03
2023-02-02T16:27:35.111Z,1.30
2023-02-02T16:30:39.468Z,1.20
2023-02-02T16:33:44.243Z,1.20
2023-02-02T16:37:07.139Z,1.10
2023-02-02T16:40:26.682Z,1.48
2023-02-02T16:43:30.390Z,0.95
2023-02-02T16:46:49.697Z,1.23
2023-02-02T16:50:28.754Z,1.10
2023-02-02T16:53:31.533Z,1.00
2023-02-02T16:56:39.874Z,1.20
2023-02-02T16:59:49.043Z,1.23
2023-02-02T17:02:58.353Z,1.20
2023-02-02T17:06:02.360Z,1.20
2023-02-02T17:09:15.917Z,0.90
2023-02-02T17:12:34.196Z,1.00
2023-02-02T17:15:37.808Z,1.20
2023-02-02T17:18:40.716Z,0.98
2023-02-02T17:21:43.725Z,0.70
2023-02-02T17:24:48.912Z,0.90
2023-02-02T17:27:51.811Z,1.30
2023-02-02T17:31:00.624Z,1.30
2023-02-02T17:34:04.423Z,1.00
2023-02-02T17:37:07.112Z,0.80
2023-02-02T17:40:17.671Z,1.20
2023-02-02T17:43:20.358Z,1.35
2023-02-02T17:46:22.909Z,1.10
2023-02-02T17:49:25.446Z,1.30
2023-02-02T17:52:28.276Z,1.20
2023-02-02T17:55:36.689Z,1.23
2023-02-02T17:58:40.402Z,1.58
2023-02-02T18:01:42.983Z,2.42
2023-02-02T18:04:45.964Z,1.80
2023-02-02T18:07:48.683Z,1.47
2023-02-02T18:10:51.297Z,1.50
2023-02-02T18:13:53.936Z,1.80
2023-02-02T18:16:56.445Z,1.20
2023-02-02T18:19:59.133Z,1.27
2023-02-02T18:23:02.047Z,1.55
2023-02-02T18:26:17.586Z,1.60
2023-02-02T18:29:20.465Z,1.60
2023-02-02T18:32:23.162Z,1.10
2023-02-02T18:35:26.044Z,1.07
2023-02-02T18:38:29.220Z,1.40
2023-02-02T18:41:32.008Z,1.83
2023-02-02T18:44:36.403Z,1.38
2023-02-02T18:47:41.346Z,1.43
2023-02-02T18:50:44.407Z,1.20
2023-02-02T18:53:48.830Z,1.40
2023-02-02T18:56:51.523Z,1.30
2023-02-02T18:59:54.246Z,1.50
2023-02-02T19:02:56.951Z,1.42
2023-02-02T19:06:18.207Z,1.60
2023-02-02T19:09:22.261Z,2.00
2023-02-02T19:12:28.427Z,1.33
2023-02-02T19:15:34.802Z,1.50
2023-02-02T19:18:37.871Z,1.15
2023-02-02T19:21:42.204Z,1.48
2023-02-02T19:24:45.758Z,1.58
2023-02-02T19:27:48.327Z,1.50
2023-02-02T19:30:56.879Z,2.17
2023-02-02T19:34:01.390Z,1.52
2023-02-02T19:37:25.945Z,1.97
2023-02-02T19:40:29.266Z,1.40
2023-02-02T19:43:33.167Z,1.30
2023-02-02T19:46:41.689Z,1.70
2023-02-02T19:49:44.391Z,1.83
2023-02-02T19:52:48.938Z,1.63
2023-02-02T19:55:52.699Z,1.60
2023-02-02T19:58:55.879Z,1.77
2023-02-02T20:02:06.478Z,1.57
2023-02-02T20:05:12.160Z,2.17
2023-02-02T20:08:39.660Z,2.05
2023-02-02T20:11:45.330Z,1.75
2023-02-02T20:14:48.483Z,1.40
2023-02-02T20:17:54.326Z,1.87
2023-02-02T20:20:57.391Z,1.60
2023-02-02T20:24:00.112Z,1.60
2023-02-02T20:27:14.641Z,2.10
2023-02-02T20:30:25.144Z,2.20
2023-02-02T20:33:28.256Z,2.17
2023-02-02T20:36:37.656Z,2.03
2023-02-02T20:39:50.491Z,1.60
2023-02-02T20:42:53.411Z,1.80
2023-02-02T20:45:56.182Z,2.15
2023-02-02T20:48:59.606Z,1.50
2023-02-02T20:52:08.046Z,1.30
2023-02-02T20:55:11.693Z,1.83
2023-02-02T20:58:14.482Z,1.60
2023-02-02T21:01:19.104Z,1.25
2023-02-02T21:04:22.449Z,1.20
2023-02-02T21:07:28.118Z,2.00
2023-02-02T21:10:30.651Z,2.08
2023-02-02T21:13:33.167Z,2.05
2023-02-02T21:16:36.321Z,2.40
2023-02-02T21:19:39.621Z,2.40
2023-02-02T21:22:42.475Z,2.80
2023-02-02T21:25:45.071Z,2.60
2023-02-02T21:28:47.671Z,3.20
2023-02-02T21:31:50.183Z,2.53
2023-02-02T21:34:52.959Z,2.10
2023-02-02T21:37:57.584Z,2.03
2023-02-02T21:41:00.638Z,2.20
2023-02-02T21:44:12.194Z,2.80
2023-02-02T21:47:28.642Z,2.13
2023-02-02T21:50:37.752Z,2.35
2023-02-02T21:53:40.224Z,1.80
2023-02-02T21:56:42.757Z,2.03
2023-02-02T21:59:48.887Z,1.63
2023-02-02T22:02:53.488Z,2.20
2023-02-02T22:06:13.796Z,1.80
2023-02-02T22:09:22.497Z,2.20
2023-02-02T22:12:25.597Z,1.95
2023-02-02T22:15:33.743Z,1.93
2023-02-02T22:18:36.435Z,1.83
2023-02-02T22:21:38.931Z,2.20
2023-02-02T22:24:58.028Z,2.55
2023-02-02T22:28:13.541Z,2.22
2023-02-02T22:31:16.565Z,1.77
2023-02-02T22:34:19.111Z,1.83
2023-02-02T22:37:21.852Z,1.95
2023-02-02T22:40:24.844Z,2.22
2023-02-02T22:43:27.623Z,2.00
2023-02-02T22:46:30.146Z,1.90
2023-02-02T22:49:32.990Z,1.88
2023-02-02T22:52:35.500Z,1.98
2023-02-02T22:55:37.954Z,1.67
2023-02-02T22:58:40.572Z,1.48
2023-02-02T23:01:43.008Z,1.80
2023-02-02T23:04:45.447Z,1.67
2023-02-02T23:07:49.128Z,1.50
2023-02-02T23:10:51.549Z,2.05
2023-02-02T23:13:53.994Z,1.83
2023-02-02T23:16:56.475Z,1.80
2023-02-02T23:19:58.953Z,1.80
2023-02-02T23:23:01.623Z,2.08
2023-02-02T23:26:04.101Z,1.25
2023-02-02T23:29:07.058Z,1.70
2023-02-02T23:32:09.577Z,1.73
2023-02-02T23:35:11.989Z,0.90
2023-02-02T23:38:14.547Z,1.48
2023-02-02T23:41:17.362Z,1.47
2023-02-02T23:44:19.872Z,1.55
2023-02-02T23:47:22.504Z,1.33
2023-02-02T23:50:25.366Z,1.00
2023-02-02T23:53:28.343Z,1.27
2023-02-02T23:56:31.016Z,0.90
2023-02-02T23:59:33.444Z,1.55
